Time;durP1;ratioP1;P1;durP2;ratioP2;P2;SDS_P1;SDS_P2;PMS_P1;PMS_P2;Temp;Humidity;BMP_temperature;BMP_pressure;BME280_temperature;BME280_humidity;BME280_pressure;Samples;Min_cycle;Max_cycle;Signal;HPM_P1;HPM_P2
2021/03/13 00:00:45;;;;;;;1.83;1.05;;;8.00;88.50;;;;;;5071370;28;20622;-41
2021/03/13 00:03:12;;;;;;;3.97;1.45;;;8.00;88.70;;;;;;5071624;28;20211;-41
2021/03/13 00:05:41;;;;;;;1.30;1.00;;;8.00;88.80;;;;;;5071499;28;20218;-41
2021/03/13 00:08:09;;;;;;;4.68;1.42;;;8.00;88.60;;;;;;5071165;28;20717;-41
2021/03/13 00:10:38;;;;;;;1.75;1.25;;;8.00;88.50;;;;;;5071489;28;20234;-41
2021/03/13 00:13:08;;;;;;;0.95;0.80;;;8.10;88.60;;;;;;5071409;28;20215;-40
2021/03/13 00:15:35;;;;;;;2.42;0.98;;;8.10;88.30;;;;;;5071379;28;20302;-41
2021/03/13 00:18:03;;;;;;;3.05;1.00;;;8.10;88.30;;;;;;5071703;28;20200;-41
2021/03/13 00:20:32;;;;;;;2.72;1.17;;;8.20;88.20;;;;;;5071783;28;20336;-40
2021/03/13 00:22:59;;;;;;;1.35;0.93;;;8.20;88.20;;;;;;5071441;28;20317;-41
2021/03/13 00:25:28;;;;;;;6.43;1.40;;;8.20;88.20;;;;;;5071460;28;20798;-41
2021/03/13 00:27:57;;;;;;;2.15;1.15;;;8.20;88.30;;;;;;5071185;28;20231;-41
2021/03/13 00:30:26;;;;;;;1.70;0.93;;;8.20;88.30;;;;;;5071554;28;20297;-45
2021/03/13 00:32:55;;;;;;;1.23;0.80;;;8.20;88.40;;;;;;5071519;28;20207;-40
2021/03/13 00:35:23;;;;;;;4.22;1.10;;;8.20;88.60;;;;;;5071237;28;20203;-40
2021/03/13 00:37:51;;;;;;;2.78;0.93;;;8.20;88.80;;;;;;5071246;28;20290;-40
2021/03/13 00:40:20;;;;;;;3.97;1.08;;;8.20;88.90;;;;;;5071202;28;20571;-40
2021/03/13 00:42:47;;;;;;;3.28;1.38;;;8.10;89.10;;;;;;5071082;28;20317;-40
2021/03/13 00:45:19;;;;;;;2.80;0.90;;;8.10;89.40;;;;;;5071099;28;20680;-40
2021/03/13 00:47:47;;;;;;;1.77;0.80;;;8.10;89.90;;;;;;5071073;28;20560;-41
2021/03/13 00:50:16;;;;;;;1.80;1.13;;;8.10;90.10;;;;;;5071173;28;20208;-40
2021/03/13 00:52:43;;;;;;;4.38;1.25;;;8.10;90.20;;;;;;5071081;28;20237;-40
2021/03/13 00:55:11;;;;;;;1.65;1.10;;;8.00;90.30;;;;;;5071090;28;20341;-41
2021/03/13 00:57:38;;;;;;;3.33;1.10;;;8.10;90.50;;;;;;5070915;28;20649;-40
2021/03/13 01:00:07;;;;;;;1.70;1.10;;;8.00;90.60;;;;;;5071008;28;20233;-40
2021/03/13 01:02:35;;;;;;;1.63;1.30;;;8.00;90.80;;;;;;5071180;28;20290;-40
2021/03/13 01:05:03;;;;;;;1.25;0.95;;;7.90;91.10;;;;;;5070833;28;20234;-40
2021/03/13 01:07:30;;;;;;;1.27;1.17;;;7.90;91.20;;;;;;5070939;28;20314;-40
2021/03/13 01:09:57;;;;;;;1.08;0.70;;;7.90;91.40;;;;;;5071360;28;20242;-40
2021/03/13 01:12:24;;;;;;;1.92;1.00;;;7.80;91.50;;;;;;5074889;28;20298;-41
2021/03/13 01:14:51;;;;;;;1.55;1.00;;;7.80;91.70;;;;;;5074860;28;20301;-41
2021/03/13 01:17:18;;;;;;;2.67;1.20;;;7.70;91.80;;;;;;5074630;28;20214;-41
2021/03/13 01:19:46;;;;;;;4.15;1.00;;;7.70;92.00;;;;;;5074557;28;20224;-40
2021/03/13 01:22:12;;;;;;;3.03;0.90;;;7.70;92.40;;;;;;5074526;28;20203;-41
2021/03/13 01:24:41;;;;;;;1.85;0.80;;;7.60;92.20;;;;;;5074390;28;20632;-41
2021/03/13 01:27:09;;;;;;;3.72;1.05;;;7.60;92.40;;;;;;5074532;28;20223;-41
2021/03/13 01:29:36;;;;;;;1.40;0.77;;;7.70;92.50;;;;;;5074362;28;20221;-41
2021/03/13 01:32:03;;;;;;;4.60;1.08;;;7.70;92.50;;;;;;5074314;28;20254;-40
2021/03/13 01:34:31;;;;;;;1.10;0.90;;;7.70;92.50;;;;;;5074360;28;20239;-41
2021/03/13 01:37:00;;;;;;;2.58;1.80;;;7.80;92.50;;;;;;5074462;28;20207;-41
2021/03/13 01:39:27;;;;;;;3.33;1.23;;;7.80;92.60;;;;;;5074103;28;20776;-40
2021/03/13 01:41:54;;;;;;;2.40;1.27;;;7.80;92.60;;;;;;5074154;28;20550;-40
2021/03/13 01:44:21;;;;;;;3.55;1.15;;;7.80;92.70;;;;;;5074017;28;20302;-40
2021/03/13 01:46:48;;;;;;;1.33;0.75;;;7.80;92.70;;;;;;5073937;28;20239;-41
2021/03/13 01:49:22;;;;;;;7.63;3.42;;;7.90;92.70;;;;;;5073937;28;20207;-40
2021/03/13 01:51:49;;;;;;;3.55;1.20;;;7.90;92.70;;;;;;5074305;28;20203;-41
2021/03/13 01:54:16;;;;;;;1.30;1.02;;;7.90;92.90;;;;;;5073852;28;20258;-41
2021/03/13 01:56:45;;;;;;;1.95;1.02;;;7.90;92.90;;;;;;5073869;28;20660;-41
2021/03/13 01:59:12;;;;;;;4.40;1.02;;;7.80;92.90;;;;;;5073833;28;20680;-41
2021/03/13 02:01:40;;;;;;;1.90;1.13;;;7.80;93.00;;;;;;5073672;28;20246;-41
2021/03/13 02:04:07;;;;;;;1.50;1.05;;;7.70;93.00;;;;;;5073799;28;20203;-41
2021/03/13 02:06:39;;;;;;;5.47;1.88;;;7.70;93.10;;;;;;5073931;28;20264;-40
2021/03/13 02:09:18;;;;;;;2.28;1.42;;;7.60;93.20;;;;;;5073661;28;20314;-41
2021/03/13 02:12:04;;;;;;;4.93;1.20;;;7.60;93.30;;;;;;5073771;28;20207;-41
2021/03/13 02:14:38;;;;;;;1.38;0.90;;;7.60;93.40;;;;;;5073811;28;20643;-41
2021/03/13 02:17:12;;;;;;;1.10;0.98;;;7.50;93.50;;;;;;5073751;28;20302;-41
2021/03/13 02:20:02;;;;;;;1.88;0.85;;;7.50;93.50;;;;;;5073705;28;20261;-41
2021/03/13 02:22:36;;;;;;;4.55;2.58;;;7.40;93.70;;;;;;5072885;28;20676;-41
2021/03/13 02:25:09;;;;;;;1.33;1.23;;;7.40;93.70;;;;;;5073379;28;20610;-41
2021/03/13 02:27:45;;;;;;;11.05;6.50;;;7.40;93.80;;;;;;5073478;28;20231;-41
2021/03/13 02:30:16;;;;;;;4.97;2.83;;;7.40;93.80;;;;;;5073392;28;20338;-40
2021/03/13 02:32:47;;;;;;;2.38;1.40;;;7.40;94.10;;;;;;5073358;28;20290;-41
2021/03/13 02:35:19;;;;;;;2.40;1.42;;;7.30;94.00;;;;;;5073125;28;20207;-40
2021/03/13 02:37:50;;;;;;;2.30;1.17;;;7.30;94.10;;;;;;5073468;28;20301;-40
2021/03/13 02:40:22;;;;;;;3.28;1.50;;;7.30;94.40;;;;;;5073224;28;20528;-40
2021/03/13 02:42:54;;;;;;;6.93;2.22;;;7.30;94.40;;;;;;5073095;28;20355;-41
2021/03/13 02:45:25;;;;;;;2.97;1.63;;;7.20;94.70;;;;;;5073066;28;20215;-41
2021/03/13 02:47:54;;;;;;;2.63;1.40;;;7.20;94.80;;;;;;5072780;28;20682;-41
2021/03/13 02:50:21;;;;;;;4.72;1.50;;;7.20;94.90;;;;;;5072818;28;20297;-41
2021/03/13 02:52:52;;;;;;;2.22;1.02;;;7.10;95.00;;;;;;5072874;28;20380;-40
2021/03/13 02:55:21;;;;;;;14.20;8.07;;;7.10;95.10;;;;;;5072905;28;20211;-41
2021/03/13 02:57:51;;;;;;;4.03;1.50;;;7.10;95.30;;;;;;5072688;28;20731;-41
2021/03/13 03:00:21;;;;;;;5.97;2.15;;;7.10;95.60;;;;;;5072645;28;20286;-40
2021/03/13 03:02:54;;;;;;;6.82;3.67;;;7.10;95.80;;;;;;5072847;28;20239;-41
2021/03/13 03:05:23;;;;;;;4.25;1.40;;;7.10;96.00;;;;;;5072575;28;20300;-40
2021/03/13 03:07:52;;;;;;;4.22;1.58;;;7.10;96.10;;;;;;5072549;28;20345;-41
2021/03/13 03:10:21;;;;;;;2.78;1.25;;;7.00;96.10;;;;;;5072550;28;20630;-40
2021/03/13 03:12:49;;;;;;;2.08;1.10;;;7.00;96.40;;;;;;5072324;28;20222;-40
2021/03/13 03:15:18;;;;;;;5.65;3.53;;;7.00;96.50;;;;;;5072437;28;20233;-41
2021/03/13 03:17:46;;;;;;;6.47;2.03;;;7.00;96.80;;;;;;5072523;28;20591;-40
2021/03/13 03:20:15;;;;;;;2.38;1.30;;;7.00;96.90;;;;;;5072138;28;20647;-40
2021/03/13 03:22:42;;;;;;;3.17;1.20;;;6.90;97.10;;;;;;5072325;28;20209;-40
2021/03/13 03:25:10;;;;;;;3.75;2.42;;;6.90;97.30;;;;;;5072149;28;20302;-40
2021/03/13 03:27:49;;;;;;;2.22;1.10;;;6.90;97.30;;;;;;5072329;28;20319;-40
2021/03/13 03:30:20;;;;;;;1.25;0.95;;;6.90;97.60;;;;;;5072364;28;20211;-40
2021/03/13 03:32:47;;;;;;;3.28;1.45;;;6.90;97.90;;;;;;5071273;28;20207;-40
2021/03/13 03:35:17;;;;;;;2.17;0.95;;;6.90;98.10;;;;;;5072083;28;20238;-40
2021/03/13 03:37:44;;;;;;;2.40;1.40;;;6.90;98.40;;;;;;5071981;28;20200;-40
2021/03/13 03:40:14;;;;;;;1.40;0.70;;;6.90;98.40;;;;;;5072223;28;20302;-40
2021/03/13 03:42:46;;;;;;;3.05;1.00;;;6.90;98.60;;;;;;5072057;28;20203;-40
2021/03/13 03:45:16;;;;;;;1.00;0.75;;;6.90;98.60;;;;;;5072078;28;20333;-40
2021/03/13 03:47:44;;;;;;;3.05;1.13;;;6.80;98.90;;;;;;5071621;28;20326;-40
2021/03/13 03:50:14;;;;;;;1.25;1.00;;;6.80;99.10;;;;;;5071837;28;20235;-40
2021/03/13 03:52:44;;;;;;;4.40;1.42;;;6.80;99.30;;;;;;5071797;28;20250;-40
2021/03/13 03:55:13;;;;;;;2.42;1.33;;;6.80;99.50;;;;;;5071615;28;20257;-40
2021/03/13 03:57:42;;;;;;;1.73;1.02;;;6.80;99.70;;;;;;5071788;28;20292;-40
2021/03/13 04:00:11;;;;;;;3.03;1.30;;;6.80;99.80;;;;;;5071702;28;20250;-40
2021/03/13 04:02:55;;;;;;;2.22;1.20;;;6.80;99.90;;;;;;5071843;28;20192;-40
2021/03/13 04:05:22;;;;;;;2.72;1.10;;;6.70;99.90;;;;;;5071861;28;20620;-41
2021/03/13 04:07:51;;;;;;;3.03;1.50;;;6.80;99.90;;;;;;5071555;28;20234;-40
2021/03/13 04:10:18;;;;;;;1.63;1.45;;;6.70;99.90;;;;;;5071512;28;20661;-40
2021/03/13 04:12:47;;;;;;;2.42;1.73;;;6.80;99.90;;;;;;5071434;28;20669;-40
2021/03/13 04:15:15;;;;;;;3.35;1.40;;;6.80;99.90;;;;;;5071363;28;20203;-40
2021/03/13 04:17:43;;;;;;;4.40;1.35;;;6.80;99.90;;;;;;5071767;28;20203;-40
2021/03/13 04:20:11;;;;;;;2.38;1.70;;;6.80;99.90;;;;;;5071605;28;20203;-40
2021/03/13 04:22:39;;;;;;;2.78;1.58;;;6.80;99.90;;;;;;5071529;28;20247;-40
2021/03/13 04:25:09;;;;;;;1.65;1.10;;;6.80;99.90;;;;;;5071386;28;20210;-40
2021/03/13 04:27:44;;;;;;;2.15;1.30;;;6.80;99.90;;;;;;5071209;28;20234;-41
2021/03/13 04:30:14;;;;;;;3.63;1.10;;;6.80;99.90;;;;;;5071556;28;20211;-40
2021/03/13 04:32:42;;;;;;;2.92;1.00;;;6.80;99.90;;;;;;5071262;28;20298;-40
2021/03/13 04:35:11;;;;;;;2.13;1.35;;;6.80;99.90;;;;;;5071441;28;20235;-40
2021/03/13 04:37:38;;;;;;;5.50;1.42;;;6.80;99.90;;;;;;5071112;28;20247;-40
2021/03/13 04:40:09;;;;;;;1.33;0.82;;;6.80;99.90;;;;;;5071180;28;20250;-40
2021/03/13 04:42:38;;;;;;;1.08;0.98;;;6.80;99.90;;;;;;5071475;28;20235;-40
2021/03/13 04:45:06;;;;;;;5.15;1.40;;;6.80;99.90;;;;;;5073557;28;20288;-40
2021/03/13 04:47:34;;;;;;;2.72;1.27;;;6.80;99.90;;;;;;5074977;28;20261;-40
2021/03/13 04:50:02;;;;;;;3.13;1.13;;;6.80;99.90;;;;;;5075081;28;20211;-40
2021/03/13 04:52:29;;;;;;;3.05;1.05;;;6.80;99.90;;;;;;5074912;28;20686;-40
2021/03/13 04:54:56;;;;;;;3.30;0.98;;;6.80;99.90;;;;;;5075305;28;20305;-40
2021/03/13 04:57:24;;;;;;;3.50;0.98;;;6.80;99.90;;;;;;5075032;28;20239;-40
2021/03/13 04:59:51;;;;;;;1.35;0.65;;;6.80;99.90;;;;;;5075186;28;20247;-40
2021/03/13 05:02:19;;;;;;;2.08;1.20;;;6.80;99.90;;;;;;5074696;28;20219;-40
2021/03/13 05:04:46;;;;;;;1.42;0.73;;;6.80;99.90;;;;;;5074648;28;20213;-40
2021/03/13 05:07:13;;;;;;;1.42;1.00;;;6.80;99.90;;;;;;5074458;28;20226;-41
2021/03/13 05:09:41;;;;;;;2.00;1.10;;;6.80;99.90;;;;;;5074799;28;20338;-43
2021/03/13 05:12:08;;;;;;;1.55;1.00;;;6.80;99.90;;;;;;5074823;28;20352;-40
2021/03/13 05:14:36;;;;;;;2.22;1.00;;;6.80;99.80;;;;;;5074869;28;20246;-40
2021/03/13 05:17:04;;;;;;;1.02;0.85;;;6.80;99.70;;;;;;5074827;28;20283;-43
2021/03/13 05:19:31;;;;;;;1.92;0.95;;;6.80;99.70;;;;;;5074537;28;20264;-40
2021/03/13 05:21:58;;;;;;;1.50;0.82;;;6.90;99.70;;;;;;5074642;28;20254;-40
2021/03/13 05:24:25;;;;;;;2.40;2.25;;;6.80;99.60;;;;;;5074449;28;20208;-39
2021/03/13 05:26:52;;;;;;;1.55;1.10;;;6.80;99.60;;;;;;5074250;28;20233;-39
2021/03/13 05:29:19;;;;;;;1.95;1.75;;;6.80;99.60;;;;;;5074564;28;20274;-39
2021/03/13 05:31:46;;;;;;;1.42;0.90;;;6.80;99.50;;;;;;5074546;28;20211;-39
2021/03/13 05:34:14;;;;;;;2.25;0.90;;;6.80;99.50;;;;;;5074387;28;20204;-40
2021/03/13 05:36:40;;;;;;;1.98;0.82;;;6.80;99.50;;;;;;5074488;28;20307;-39
2021/03/13 05:39:08;;;;;;;1.38;1.27;;;6.80;99.50;;;;;;5074704;28;20326;-39
2021/03/13 05:41:36;;;;;;;1.48;0.98;;;6.80;99.40;;;;;;5074220;28;20213;-39
2021/03/13 05:44:06;;;;;;;1.63;0.85;;;6.80;99.40;;;;;;5074401;28;20306;-39
2021/03/13 05:46:37;;;;;;;1.05;0.70;;;6.80;99.30;;;;;;5074220;28;20353;-39
2021/03/13 05:49:07;;;;;;;1.13;0.80;;;6.90;99.30;;;;;;5074038;28;20227;-39
2021/03/13 05:51:35;;;;;;;1.27;0.93;;;6.90;99.20;;;;;;5075263;28;20207;-40
2021/03/13 05:54:04;;;;;;;2.97;0.90;;;6.90;99.20;;;;;;5074228;28;20579;-40
2021/03/13 05:56:31;;;;;;;2.38;1.15;;;6.90;99.10;;;;;;5073147;28;20226;-39
2021/03/13 05:58:59;;;;;;;1.75;0.85;;;7.00;99.00;;;;;;5074041;28;20210;-38
2021/03/13 06:01:27;;;;;;;3.95;1.30;;;7.00;98.90;;;;;;5073820;28;20662;-39
2021/03/13 06:03:55;;;;;;;2.60;1.00;;;7.10;98.90;;;;;;5073802;28;20298;-39
2021/03/13 06:06:24;;;;;;;4.35;1.27;;;7.10;98.70;;;;;;5074114;28;20209;-38
2021/03/13 06:08:52;;;;;;;2.47;1.00;;;7.20;98.70;;;;;;5073534;28;20345;-39
2021/03/13 06:11:21;;;;;;;1.45;0.80;;;7.20;98.60;;;;;;5073945;28;20239;-39
2021/03/13 06:13:48;;;;;;;2.75;1.13;;;7.20;98.50;;;;;;5073498;28;20674;-39
2021/03/13 06:16:16;;;;;;;4.88;1.35;;;7.30;98.50;;;;;;5073844;28;20300;-39
2021/03/13 06:18:52;;;;;;;3.15;2.15;;;7.30;98.40;;;;;;5073611;28;20215;-38
2021/03/13 06:21:24;;;;;;;3.28;1.40;;;7.40;98.30;;;;;;5073812;28;20237;-38
2021/03/13 06:23:56;;;;;;;1.50;1.05;;;7.40;98.20;;;;;;5073585;28;20214;-38
2021/03/13 06:26:24;;;;;;;3.38;1.50;;;7.50;98.10;;;;;;5073258;28;20245;-38
2021/03/13 06:28:52;;;;;;;2.38;1.00;;;7.50;98.10;;;;;;5073472;28;20266;-39
2021/03/13 06:31:26;;;;;;;3.30;1.25;;;7.50;98.10;;;;;;5073540;28;20216;-39
2021/03/13 06:33:53;;;;;;;2.25;1.00;;;7.60;97.90;;;;;;5073719;28;20239;-39
2021/03/13 06:36:23;;;;;;;2.50;1.35;;;7.70;97.80;;;;;;5073395;28;20213;-39
2021/03/13 06:38:51;;;;;;;1.98;0.95;;;7.70;97.60;;;;;;5073010;28;20229;-39
2021/03/13 06:41:19;;;;;;;0.95;0.80;;;7.70;97.50;;;;;;5073397;28;20208;-39
2021/03/13 06:43:47;;;;;;;1.42;0.95;;;7.80;97.40;;;;;;5073215;28;20317;-39
2021/03/13 06:46:15;;;;;;;2.67;1.05;;;7.90;97.30;;;;;;5072964;28;20603;-39
2021/03/13 06:48:44;;;;;;;2.35;1.30;;;8.00;97.10;;;;;;5073156;28;20319;-39
2021/03/13 06:51:24;;;;;;;3.30;1.13;;;8.00;96.90;;;;;;5073032;28;20371;-39
2021/03/13 06:54:06;;;;;;;3.17;1.00;;;8.10;96.70;;;;;;5073183;28;20234;-39
2021/03/13 06:56:36;;;;;;;2.35;0.80;;;8.10;96.50;;;;;;5072954;28;20638;-39
2021/03/13 06:59:21;;;;;;;2.55;0.98;;;8.10;96.40;;;;;;5072946;28;20204;-39
2021/03/13 07:01:58;;;;;;;1.45;0.70;;;8.00;96.50;;;;;;5072778;28;20296;-40
2021/03/13 07:04:29;;;;;;;1.83;1.10;;;8.10;96.40;;;;;;5073206;28;20223;-40
2021/03/13 07:06:57;;;;;;;3.25;0.93;;;8.10;96.10;;;;;;5072524;28;20253;-40
2021/03/13 07:09:43;;;;;;;3.15;1.05;;;8.10;96.20;;;;;;5054589;28;20240;-40
2021/03/13 07:12:24;;;;;;;1.50;1.08;;;8.10;96.00;;;;;;5040133;28;20216;-40
2021/03/13 07:14:52;;;;;;;2.58;1.75;;;8.10;95.80;;;;;;5052576;28;20666;-40
2021/03/13 07:17:21;;;;;;;1.05;0.85;;;8.20;95.90;;;;;;5052503;28;20208;-40
2021/03/13 07:19:48;;;;;;;1.75;0.90;;;8.20;95.70;;;;;;5052749;28;20208;-40
2021/03/13 07:22:18;;;;;;;6.20;1.35;;;8.30;95.70;;;;;;5052471;28;20753;-40
2021/03/13 07:24:44;;;;;;;1.92;1.00;;;8.40;95.60;;;;;;5052232;28;20597;-40
2021/03/13 07:27:12;;;;;;;2.15;1.13;;;8.40;95.40;;;;;;5052558;28;20649;-39
2021/03/13 07:29:40;;;;;;;1.52;0.95;;;8.50;95.10;;;;;;5052023;28;20232;-39
2021/03/13 07:32:14;;;;;;;0.70;0.70;;;8.60;95.00;;;;;;5051965;28;20219;-40
2021/03/13 07:34:42;;;;;;;1.40;1.00;;;8.60;94.90;;;;;;5051916;28;20209;-40
2021/03/13 07:37:15;;;;;;;1.40;1.13;;;8.70;94.70;;;;;;5051820;28;20239;-39
2021/03/13 07:39:46;;;;;;;2.70;1.10;;;8.80;94.60;;;;;;5052188;28;20254;-40
2021/03/13 07:42:16;;;;;;;1.67;1.02;;;8.80;94.30;;;;;;5052103;28;20691;-40
2021/03/13 07:44:43;;;;;;;1.60;1.05;;;8.80;94.10;;;;;;5052064;28;20208;-40
2021/03/13 07:47:13;;;;;;;1.13;0.90;;;8.80;94.00;;;;;;5051674;28;20250;-40
2021/03/13 07:49:41;;;;;;;2.22;1.02;;;8.90;94.00;;;;;;5051410;28;20675;-39
2021/03/13 07:52:10;;;;;;;1.85;0.93;;;8.90;94.00;;;;;;5051618;28;20287;-40
2021/03/13 07:54:40;;;;;;;1.30;1.10;;;9.00;93.70;;;;;;5051938;28;20303;-39
2021/03/13 07:57:10;;;;;;;2.30;1.05;;;9.10;93.50;;;;;;5051423;28;20698;-40
2021/03/13 07:59:45;;;;;;;3.28;1.15;;;9.10;93.50;;;;;;5051757;28;20208;-40
2021/03/13 08:02:38;;;;;;;3.22;1.73;;;9.10;93.40;;;;;;5051606;28;20264;-40
2021/03/13 08:05:07;;;;;;;1.98;1.65;;;9.10;93.00;;;;;;5051472;28;20635;-40
2021/03/13 08:08:03;;;;;;;3.03;1.00;;;9.10;93.20;;;;;;5070052;28;20300;-40
2021/03/13 08:10:45;;;;;;;2.30;1.15;;;9.10;93.00;;;;;;5047517;28;20282;-40
2021/03/13 08:13:14;;;;;;;2.35;1.02;;;9.10;92.90;;;;;;5071447;28;20208;-40
2021/03/13 08:15:47;;;;;;;3.03;1.10;;;9.20;93.10;;;;;;5071554;28;20277;-40
2021/03/13 08:18:42;;;;;;;1.88;1.05;;;9.20;92.70;;;;;;5071287;28;20583;-39
2021/03/13 08:21:45;;;;;;;4.22;2.38;;;9.30;92.30;;;;;;5071364;28;20250;-39
2021/03/13 08:24:13;;;;;;;2.90;2.08;;;9.30;92.40;;;;;;5071300;28;20207;-39
2021/03/13 08:27:08;;;;;;;4.32;1.90;;;9.40;92.40;;;;;;5071520;28;20377;-39
2021/03/13 08:29:56;;;;;;;3.42;2.00;;;9.40;92.20;;;;;;5071238;28;20348;-39
2021/03/13 08:33:04;;;;;;;6.65;2.95;;;9.40;91.60;;;;;;5071411;28;20319;-37
2021/03/13 08:35:44;;;;;;;2.90;2.50;;;9.30;91.60;;;;;;5071560;28;20219;-39
2021/03/13 08:38:12;;;;;;;3.63;2.08;;;9.30;91.80;;;;;;5071350;28;20230;-39
2021/03/13 08:40:51;;;;;;;6.10;2.00;;;9.30;91.90;;;;;;5071336;28;20235;-39
2021/03/13 08:43:41;;;;;;;4.18;2.00;;;9.40;91.30;;;;;;5071451;28;20217;-39
2021/03/13 08:46:43;;;;;;;3.78;1.60;;;9.50;91.30;;;;;;5070658;28;20863;-39
2021/03/13 08:49:13;;;;;;;4.18;2.72;;;9.70;91.10;;;;;;5071210;28;20598;-39
2021/03/13 08:51:40;;;;;;;3.03;1.70;;;9.90;90.80;;;;;;5071104;28;20215;-39
2021/03/13 08:54:08;;;;;;;1.98;1.70;;;10.00;90.40;;;;;;5070999;28;20250;-39
2021/03/13 08:56:46;;;;;;;2.00;1.42;;;10.20;90.00;;;;;;5071075;28;20700;-40
2021/03/13 08:59:18;;;;;;;3.20;1.60;;;10.30;88.80;;;;;;5071203;28;20584;-40
2021/03/13 09:02:06;;;;;;;3.35;2.08;;;10.40;87.50;;;;;;5071129;28;20295;-39
2021/03/13 09:04:35;;;;;;;1.65;1.40;;;10.40;86.50;;;;;;5071150;28;20211;-39
2021/03/13 09:07:07;;;;;;;1.38;0.88;;;10.40;86.90;;;;;;5071020;28;20215;-41
2021/03/13 09:09:36;;;;;;;1.75;1.52;;;10.50;85.60;;;;;;5071175;28;20238;-40
2021/03/13 09:12:06;;;;;;;5.35;1.20;;;10.50;85.40;;;;;;5071195;28;20219;-40
2021/03/13 09:14:34;;;;;;;6.40;2.20;;;10.50;84.50;;;;;;5070923;28;20564;-40
2021/03/13 09:17:08;;;;;;;5.22;2.10;;;10.60;84.70;;;;;;5071130;28;20305;-39
2021/03/13 09:19:36;;;;;;;8.27;2.58;;;10.60;84.40;;;;;;5070803;28;20513;-40
2021/03/13 09:22:09;;;;;;;2.13;1.35;;;10.70;84.80;;;;;;5071090;28;20672;-39
2021/03/13 09:24:37;;;;;;;4.95;2.80;;;10.70;83.00;;;;;;5071021;28;20566;-39
2021/03/13 09:27:05;;;;;;;1.30;1.10;;;10.70;83.90;;;;;;5071004;28;20211;-39
2021/03/13 09:29:33;;;;;;;3.97;1.60;;;10.70;83.00;;;;;;5070581;28;20220;-40
2021/03/13 09:32:03;;;;;;;3.05;2.15;;;10.70;82.40;;;;;;5072746;28;20331;-41
2021/03/13 09:34:32;;;;;;;2.15;1.65;;;10.70;82.50;;;;;;5074347;28;20290;-40
2021/03/13 09:37:10;;;;;;;6.70;2.15;;;10.70;82.70;;;;;;5074349;28;20602;-40
2021/03/13 09:39:37;;;;;;;2.13;1.40;;;10.70;82.10;;;;;;5074320;28;20679;-40
2021/03/13 09:42:10;;;;;;;1.70;1.35;;;10.70;82.00;;;;;;5074275;28;20238;-40
2021/03/13 09:44:39;;;;;;;1.25;1.10;;;10.70;82.00;;;;;;5074502;28;20286;-39
2021/03/13 09:47:17;;;;;;;1.73;1.00;;;10.70;81.70;;;;;;5075770;28;20239;-39
2021/03/13 09:49:48;;;;;;;2.10;1.17;;;10.80;81.20;;;;;;5074346;28;20227;-39
2021/03/13 09:52:15;;;;;;;2.17;1.70;;;10.80;81.10;;;;;;5073888;28;20670;-39
2021/03/13 09:54:43;;;;;;;5.50;1.88;;;10.90;81.10;;;;;;5073930;28;20238;-39
2021/03/13 09:57:14;;;;;;;2.85;1.05;;;11.00;80.90;;;;;;5074303;28;20204;-39
2021/03/13 09:59:42;;;;;;;2.15;1.90;;;11.00;80.30;;;;;;5074002;28;20211;-39
2021/03/13 10:02:10;;;;;;;2.70;1.40;;;11.00;80.70;;;;;;5074095;28;20580;-39
2021/03/13 10:04:38;;;;;;;1.15;1.00;;;11.10;80.40;;;;;;5073949;28;20450;-39
2021/03/13 10:07:26;;;;;;;1.50;1.10;;;11.20;80.20;;;;;;5074187;28;20501;-42
2021/03/13 10:09:55;;;;;;;6.10;1.00;;;11.20;79.90;;;;;;5073721;28;20642;-37
2021/03/13 10:12:31;;;;;;;3.13;2.63;;;11.20;79.60;;;;;;5073787;28;20235;-38
2021/03/13 10:15:15;;;;;;;1.95;1.10;;;11.30;78.90;;;;;;5073893;28;20302;-39
2021/03/13 10:18:10;;;;;;;21.35;16.70;;;11.40;78.60;;;;;;5073696;28;20215;-37
2021/03/13 10:20:39;;;;;;;1.05;0.95;;;11.50;78.10;;;;;;5049517;28;20299;-37
2021/03/13 10:23:09;;;;;;;2.42;2.00;;;11.60;78.10;;;;;;5073901;28;20214;-37
2021/03/13 10:25:38;;;;;;;2.45;0.90;;;11.70;77.80;;;;;;5073563;28;20261;-37
2021/03/13 10:28:07;;;;;;;1.77;1.05;;;11.70;76.80;;;;;;5073401;28;20231;-37
2021/03/13 10:30:34;;;;;;;2.38;0.93;;;11.70;75.90;;;;;;5073610;28;20227;-37
2021/03/13 10:33:02;;;;;;;8.13;1.05;;;11.80;76.20;;;;;;5073494;28;20233;-38
2021/03/13 10:35:31;;;;;;;2.60;1.38;;;11.80;75.60;;;;;;5073415;28;20207;-38
2021/03/13 10:38:00;;;;;;;1.80;0.90;;;12.00;75.60;;;;;;5073286;28;20237;-39
2021/03/13 10:40:43;;;;;;;1.50;0.60;;;12.20;75.10;;;;;;5073168;28;20257;-40
2021/03/13 10:43:15;;;;;;;2.70;0.65;;;12.20;72.80;;;;;;5073194;28;20257;-39
2021/03/13 10:45:44;;;;;;;1.38;0.90;;;12.20;73.00;;;;;;5073188;28;20250;-39
2021/03/13 10:48:12;;;;;;;7.32;3.08;;;12.20;73.50;;;;;;5033209;28;20228;-39
2021/03/13 10:50:42;;;;;;;0.80;0.60;;;12.20;73.50;;;;;;5033242;28;20316;-39
2021/03/13 10:53:29;;;;;;;1.30;1.00;;;12.40;73.10;;;;;;5032991;28;20205;-39
2021/03/13 10:55:59;;;;;;;1.52;0.80;;;12.50;72.60;;;;;;5033031;28;20248;-39
2021/03/13 10:58:27;;;;;;;4.43;1.20;;;12.60;72.10;;;;;;5033173;28;20239;-39
2021/03/13 11:00:55;;;;;;;1.88;0.70;;;12.70;72.40;;;;;;5033030;28;20620;-39
2021/03/13 11:03:22;;;;;;;0.95;0.85;;;12.70;71.60;;;;;;5032923;28;20241;-39
2021/03/13 11:05:51;;;;;;;0.77;0.60;;;12.60;71.30;;;;;;5033256;28;20219;-39
2021/03/13 11:08:18;;;;;;;1.27;0.70;;;12.60;71.30;;;;;;5032865;28;20227;-39
2021/03/13 11:10:45;;;;;;;1.63;1.15;;;12.70;71.00;;;;;;5032810;28;20286;-39
2021/03/13 11:13:13;;;;;;;3.70;1.67;;;12.70;70.80;;;;;;5032710;28;20205;-38
2021/03/13 11:15:40;;;;;;;2.55;1.00;;;12.70;70.80;;;;;;5032530;28;20216;-38
2021/03/13 11:18:07;;;;;;;4.53;1.33;;;12.80;70.80;;;;;;5032230;28;20244;-38
2021/03/13 11:20:35;;;;;;;3.97;3.17;;;12.90;70.60;;;;;;5032535;28;20299;-38
2021/03/13 11:23:04;;;;;;;4.78;1.08;;;13.00;70.00;;;;;;5032422;28;20217;-37
2021/03/13 11:25:31;;;;;;;2.13;0.60;;;13.20;69.60;;;;;;5032572;28;20303;-38
2021/03/13 11:27:58;;;;;;;0.98;0.95;;;13.20;68.40;;;;;;5032325;28;20642;-37
2021/03/13 11:30:26;;;;;;;2.58;1.08;;;13.10;67.90;;;;;;5031978;28;20224;-39
2021/03/13 11:32:54;;;;;;;1.40;0.70;;;13.10;67.60;;;;;;5031983;28;20538;-39
2021/03/13 11:35:22;;;;;;;0.95;0.40;;;13.10;67.50;;;;;;5032303;28;20209;-39
2021/03/13 11:37:51;;;;;;;2.15;0.85;;;13.10;66.80;;;;;;5032152;28;20303;-40
2021/03/13 11:40:20;;;;;;;0.57;0.40;;;13.20;66.30;;;;;;5032063;28;20620;-40
2021/03/13 11:42:48;;;;;;;2.63;0.75;;;13.20;66.20;;;;;;5032235;28;20205;-40
2021/03/13 11:45:15;;;;;;;0.55;0.55;;;13.20;65.70;;;;;;5031935;28;20300;-40
2021/03/13 11:47:43;;;;;;;7.38;1.27;;;13.20;65.40;;;;;;5064089;28;20773;-40
2021/03/13 11:50:13;;;;;;;1.13;0.70;;;13.30;65.30;;;;;;5071881;28;20227;-40
2021/03/13 11:52:40;;;;;;;1.30;0.50;;;13.30;65.40;;;;;;5072580;28;20285;-39
2021/03/13 11:55:10;;;;;;;1.33;0.60;;;13.30;64.80;;;;;;5071496;28;20276;-40
2021/03/13 11:57:38;;;;;;;0.50;0.50;;;13.20;64.70;;;;;;5071725;28;20208;-39
2021/03/13 12:00:07;;;;;;;0.73;0.68;;;13.10;64.90;;;;;;5071829;28;20570;-40
2021/03/13 12:02:34;;;;;;;4.90;1.30;;;13.20;64.30;;;;;;5072064;28;20207;-39
2021/03/13 12:05:04;;;;;;;1.85;0.43;;;13.00;63.90;;;;;;5071711;28;20203;-39
2021/03/13 12:07:31;;;;;;;0.40;0.40;;;12.90;63.70;;;;;;5071694;28;20700;-39
2021/03/13 12:09:58;;;;;;;0.93;0.40;;;12.80;64.00;;;;;;5071371;28;20753;-39
2021/03/13 12:12:25;;;;;;;1.45;0.65;;;12.70;64.10;;;;;;5071490;28;20211;-39
2021/03/13 12:14:52;;;;;;;5.68;0.47;;;12.70;64.20;;;;;;5071759;28;20260;-39
2021/03/13 12:17:19;;;;;;;0.82;0.55;;;12.60;64.20;;;;;;5071607;28;20219;-39
2021/03/13 12:19:47;;;;;;;1.38;0.63;;;12.50;64.50;;;;;;5071554;28;20306;-39
2021/03/13 12:22:15;;;;;;;1.75;0.40;;;12.50;64.60;;;;;;5071388;28;20284;-39
2021/03/13 12:24:42;;;;;;;1.48;0.40;;;12.50;64.50;;;;;;5071505;28;20204;-39
2021/03/13 12:27:12;;;;;;;0.65;0.47;;;12.50;64.40;;;;;;5071349;28;20207;-39
2021/03/13 12:29:40;;;;;;;0.40;0.40;;;12.50;64.50;;;;;;5071185;28;20276;-40
2021/03/13 12:32:07;;;;;;;2.72;0.82;;;12.50;64.00;;;;;;5072326;28;20211;-40
2021/03/13 12:34:34;;;;;;;1.70;0.82;;;12.50;63.90;;;;;;5071487;28;20203;-40
2021/03/13 12:37:01;;;;;;;0.40;0.40;;;12.50;63.70;;;;;;5071436;28;20239;-40
2021/03/13 12:39:29;;;;;;;0.38;0.38;;;12.50;63.80;;;;;;5071377;28;20629;-39
2021/03/13 12:41:57;;;;;;;2.03;0.60;;;12.60;63.80;;;;;;5071052;28;20264;-38
2021/03/13 12:44:24;;;;;;;0.63;0.57;;;12.60;63.90;;;;;;5071105;28;20239;-39
2021/03/13 12:46:51;;;;;;;1.75;0.57;;;12.60;63.90;;;;;;5070878;28;20413;-39
2021/03/13 12:49:18;;;;;;;0.85;0.55;;;12.70;63.60;;;;;;5070815;28;20405;-38
2021/03/13 12:51:45;;;;;;;1.55;0.40;;;12.70;63.90;;;;;;5071013;28;20348;-39
2021/03/13 12:54:12;;;;;;;0.60;0.60;;;12.70;63.40;;;;;;5071235;28;20215;-39
2021/03/13 12:56:40;;;;;;;0.85;0.50;;;12.80;63.70;;;;;;5071114;28;20298;-39
2021/03/13 12:59:07;;;;;;;1.00;0.50;;;12.90;63.20;;;;;;5071308;28;20199;-40
2021/03/13 13:01:34;;;;;;;1.55;0.93;;;12.90;63.20;;;;;;5070776;28;20639;-39
2021/03/13 13:04:03;;;;;;;2.03;1.13;;;13.00;63.00;;;;;;5070814;28;20360;-40
2021/03/13 13:06:31;;;;;;;2.00;0.63;;;13.10;63.60;;;;;;5073758;28;20246;-40
2021/03/13 13:08:59;;;;;;;3.03;0.68;;;13.20;62.30;;;;;;5074533;28;20250;-39